Sheridan County Airport
KSHR : now visible

Airfield :











YOU CAN JOIN US ON...

 
LOGIN :

Register | Disclaimer

   EN    FR    IT 

 









Legend :    VFR   Marginal VFR   IFR   Intensive IFR   Very Intensive IFR
Visi :
Ceiling :
>= 8 km
>= 3000ft
5 to 8 km
1000 to 3000 ft
1500m to 5 km
500 to 1000 ft
800 to 1500m
200 to 500 ft
< 800m
< 200 ft
Symbols :   Thunderstorms  Fog  Heavy snow  Heavy precipitations  Wind > 20 kt






- Airport Elevation : 4021 ft
- IATA code : SHR


KSHR - Sheridan County

CURRENT METAR :
  • 121853Z AUTO 00000KT 10SM BKN090 05/M04 A2981 RMK AO2 SLP120 T00501044

EXPIRED METARs :
  • 121753Z AUTO 00000KT 10SM CLR 03/M04 A2982 RMK AO2 SLP124 T00331044 58005
  • 121653Z AUTO 15003KT 10SM CLR 01/M06 A2982 RMK AO2 SLP133 T00061056

TAF KSHR
Valid from the 12 at 18:00 until the 13 at 18:00 UTC


121722Z 1218/1318 15003KT P6SM VCSH BKN090
FM130000 35005KT P6SM VCSH BKN040 OVC070
FM130300 23005KT P6SM VCSH SCT150
FM131300 28008KT P6SM VCSH OVC050



MET'MAP, your aeronautical weather chart ! - Copyright ORBIFLY December 2007 - Disclaimer

ORBIFLY MET'MAP TEAM :

Programming & Development : Alexandra Zaïnal
Concept & original design : Baudouin d'Aumeries
Assistance for programming : Marc-Olivier Méhu
Technical & hardware support : Manuel Goepfert

Contact : metmap@orbifly.com




SOURCES & CREDITS :

   NOAA       Earth
Advisory